N21VJ KSBP-KPSP
Flight info
| Callsign | N21VJ |
|---|---|
| Flight time | 1h 4m |
| Altitude | 27000 |
| Route | RZS FIM POM PSP |
| Aircraft | SF50/L-SDGRWY/L |
Departure
| Time | 2026-04-25 04:50 |
|---|---|
| Airport | San Luis County Regional Airport (KSBP) |
Arrival
| Time | 2026-04-25 05:54 |
|---|---|
| Airport | Palm Springs International Airport (KPSP) |
| Time | Latitude | Longitude | Altitude | Speed | Heading |
|---|---|---|---|---|---|
| 2026-04-25 04:41 | 35.23632 | -120.63635 | 203 ft | 0 kts | 34° |
| 2026-04-25 04:47 | 35.23624 | -120.63629 | 203 ft | 9 kts | 179° |
| 2026-04-25 04:47 | 35.23547 | -120.63581 | 206 ft | 12 kts | 125° |
| 2026-04-25 04:47 | 35.23491 | -120.63484 | 212 ft | 16 kts | 126° |
| 2026-04-25 04:48 | 35.23417 | -120.63356 | 215 ft | 21 kts | 124° |
| 2026-04-25 04:48 | 35.23338 | -120.63242 | 218 ft | 14 kts | 167° |
| 2026-04-25 04:48 | 35.23325 | -120.63242 | 218 ft | 0 kts | 207° |
| 2026-04-25 04:48 | 35.23310 | -120.63252 | 218 ft | 0 kts | 210° |
| 2026-04-25 04:49 | 35.23304 | -120.63256 | 218 ft | 6 kts | 209° |
| 2026-04-25 04:49 | 35.23297 | -120.63340 | 216 ft | 0 kts | 302° |
| 2026-04-25 04:49 | 35.23361 | -120.63451 | 211 ft | 49 kts | 306° |
| 2026-04-25 04:49 | 35.23676 | -120.64003 | 314 ft | 96 kts | 306° |
| 2026-04-25 04:50 | 35.24107 | -120.64719 | 658 ft | 115 kts | 307° |
| 2026-04-25 04:50 | 35.24704 | -120.65468 | 1161 ft | 133 kts | 323° |
| 2026-04-25 04:50 | 35.25516 | -120.66196 | 1602 ft | 155 kts | 322° |
| 2026-04-25 04:50 | 35.26407 | -120.67023 | 2192 ft | 162 kts | 323° |
| 2026-04-25 04:51 | 35.27323 | -120.67858 | 2838 ft | 165 kts | 324° |
| 2026-04-25 04:51 | 35.28257 | -120.68706 | 3412 ft | 169 kts | 325° |
| 2026-04-25 04:51 | 35.29210 | -120.69573 | 3953 ft | 175 kts | 324° |
| 2026-04-25 04:51 | 35.30256 | -120.70524 | 4004 ft | 203 kts | 324° |
| 2026-04-25 04:52 | 35.31467 | -120.71629 | 4009 ft | 230 kts | 324° |
| 2026-04-25 04:52 | 35.32797 | -120.72843 | 4310 ft | 236 kts | 324° |
| 2026-04-25 04:52 | 35.34039 | -120.73980 | 5350 ft | 209 kts | 324° |
| 2026-04-25 04:52 | 35.35044 | -120.75089 | 6346 ft | 183 kts | 304° |
| 2026-04-25 04:53 | 35.35364 | -120.76543 | 6989 ft | 179 kts | 275° |
| 2026-04-25 04:53 | 35.35434 | -120.78080 | 7444 ft | 181 kts | 276° |
| 2026-04-25 04:53 | 35.35588 | -120.79592 | 7930 ft | 181 kts | 279° |
| 2026-04-25 04:53 | 35.35833 | -120.81106 | 8388 ft | 182 kts | 290° |
| 2026-04-25 04:54 | 35.36505 | -120.82420 | 8851 ft | 183 kts | 311° |
| 2026-04-25 04:54 | 35.37527 | -120.83350 | 9318 ft | 185 kts | 333° |
| 2026-04-25 04:54 | 35.38785 | -120.83744 | 9775 ft | 189 kts | 355° |
| 2026-04-25 04:54 | 35.40097 | -120.83508 | 10175 ft | 194 kts | 18° |
| 2026-04-25 04:55 | 35.41265 | -120.82706 | 10562 ft | 196 kts | 31° |
| 2026-04-25 04:55 | 35.42428 | -120.81813 | 10956 ft | 198 kts | 29° |
| 2026-04-25 04:55 | 35.43602 | -120.80911 | 11356 ft | 200 kts | 34° |
| 2026-04-25 04:55 | 35.44405 | -120.79516 | 11741 ft | 206 kts | 73° |
| 2026-04-25 04:56 | 35.44327 | -120.77786 | 12159 ft | 207 kts | 112° |
| 2026-04-25 04:56 | 35.43406 | -120.76468 | 12546 ft | 205 kts | 149° |
| 2026-04-25 04:56 | 35.42182 | -120.75551 | 12934 ft | 208 kts | 147° |
| 2026-04-25 04:56 | 35.41068 | -120.74398 | 13352 ft | 211 kts | 139° |
| 2026-04-25 04:57 | 35.39990 | -120.73159 | 13770 ft | 213 kts | 140° |
| 2026-04-25 04:57 | 35.38888 | -120.71943 | 14150 ft | 214 kts | 141° |
| 2026-04-25 04:57 | 35.37769 | -120.70724 | 14524 ft | 216 kts | 141° |
| 2026-04-25 04:57 | 35.36656 | -120.69507 | 14892 ft | 218 kts | 141° |
| 2026-04-25 04:58 | 35.35522 | -120.68264 | 15266 ft | 219 kts | 141° |
| 2026-04-25 04:58 | 35.34377 | -120.67011 | 15638 ft | 221 kts | 141° |
| 2026-04-25 04:58 | 35.33223 | -120.65750 | 16016 ft | 223 kts | 142° |
| 2026-04-25 04:58 | 35.32059 | -120.64481 | 16386 ft | 225 kts | 142° |
| 2026-04-25 04:59 | 35.30888 | -120.63204 | 16752 ft | 226 kts | 142° |
| 2026-04-25 04:59 | 35.29709 | -120.61917 | 17130 ft | 228 kts | 142° |
| 2026-04-25 04:59 | 35.28538 | -120.60638 | 17506 ft | 229 kts | 142° |
| 2026-04-25 04:59 | 35.27339 | -120.59333 | 17895 ft | 231 kts | 143° |
| 2026-04-25 05:00 | 35.26102 | -120.57989 | 17999 ft | 246 kts | 142° |
| 2026-04-25 05:00 | 35.24780 | -120.56552 | 18010 ft | 262 kts | 142° |
| 2026-04-25 05:00 | 35.23380 | -120.55023 | 18011 ft | 276 kts | 142° |
| 2026-04-25 05:00 | 35.21920 | -120.53431 | 18002 ft | 286 kts | 142° |
| 2026-04-25 05:01 | 35.20410 | -120.51787 | 18008 ft | 294 kts | 142° |
| 2026-04-25 05:01 | 35.18865 | -120.50106 | 18016 ft | 299 kts | 142° |
| 2026-04-25 05:01 | 35.17318 | -120.48423 | 18016 ft | 303 kts | 142° |
| 2026-04-25 05:01 | 35.15733 | -120.46700 | 18003 ft | 306 kts | 142° |
| 2026-04-25 05:02 | 35.14135 | -120.44962 | 18007 ft | 308 kts | 142° |
| 2026-04-25 05:02 | 35.12527 | -120.43217 | 17997 ft | 309 kts | 142° |
| 2026-04-25 05:02 | 35.10912 | -120.41466 | 18000 ft | 310 kts | 142° |
| 2026-04-25 05:02 | 35.09295 | -120.39711 | 17991 ft | 311 kts | 142° |
| 2026-04-25 05:03 | 35.07696 | -120.37977 | 17993 ft | 311 kts | 142° |
| 2026-04-25 05:03 | 35.06070 | -120.36218 | 17996 ft | 312 kts | 142° |
| 2026-04-25 05:03 | 35.04441 | -120.34456 | 17995 ft | 312 kts | 142° |
| 2026-04-25 05:03 | 35.02820 | -120.32698 | 18000 ft | 311 kts | 142° |
| 2026-04-25 05:04 | 35.01201 | -120.30946 | 18007 ft | 311 kts | 142° |
| 2026-04-25 05:04 | 34.99577 | -120.29198 | 18003 ft | 311 kts | 142° |
| 2026-04-25 05:04 | 34.97949 | -120.27440 | 18009 ft | 312 kts | 142° |
| 2026-04-25 05:04 | 34.96319 | -120.25679 | 18010 ft | 313 kts | 142° |
| 2026-04-25 05:05 | 34.94683 | -120.23915 | 18003 ft | 314 kts | 142° |
| 2026-04-25 05:05 | 34.93068 | -120.22177 | 18001 ft | 313 kts | 142° |
| 2026-04-25 05:05 | 34.91432 | -120.20413 | 17997 ft | 314 kts | 142° |
| 2026-04-25 05:05 | 34.89791 | -120.18646 | 17998 ft | 315 kts | 142° |
| 2026-04-25 05:06 | 34.88148 | -120.16879 | 17992 ft | 315 kts | 142° |
| 2026-04-25 05:06 | 34.86524 | -120.15133 | 17992 ft | 315 kts | 142° |
| 2026-04-25 05:06 | 34.84885 | -120.13367 | 17985 ft | 315 kts | 142° |
| 2026-04-25 05:06 | 34.83243 | -120.11602 | 17988 ft | 315 kts | 142° |
| 2026-04-25 05:07 | 34.81599 | -120.09837 | 17991 ft | 315 kts | 142° |
| 2026-04-25 05:07 | 34.79950 | -120.08069 | 17996 ft | 316 kts | 142° |
| 2026-04-25 05:07 | 34.78301 | -120.06297 | 17994 ft | 316 kts | 142° |
| 2026-04-25 05:07 | 34.76670 | -120.04545 | 17997 ft | 316 kts | 142° |
| 2026-04-25 05:08 | 34.75015 | -120.02776 | 17998 ft | 316 kts | 143° |
| 2026-04-25 05:08 | 34.73365 | -120.01008 | 18000 ft | 316 kts | 143° |
| 2026-04-25 05:08 | 34.71713 | -119.99237 | 18002 ft | 317 kts | 143° |
| 2026-04-25 05:08 | 34.70056 | -119.97464 | 18007 ft | 317 kts | 143° |
| 2026-04-25 05:09 | 34.68398 | -119.95691 | 18003 ft | 317 kts | 143° |
| 2026-04-25 05:09 | 34.66741 | -119.93920 | 18001 ft | 317 kts | 143° |
| 2026-04-25 05:09 | 34.65084 | -119.92153 | 17995 ft | 317 kts | 143° |
| 2026-04-25 05:09 | 34.63426 | -119.90382 | 17997 ft | 317 kts | 143° |
| 2026-04-25 05:10 | 34.61769 | -119.88614 | 17991 ft | 317 kts | 143° |
| 2026-04-25 05:10 | 34.60111 | -119.86846 | 17982 ft | 317 kts | 143° |
| 2026-04-25 05:10 | 34.58449 | -119.85076 | 17944 ft | 317 kts | 143° |
| 2026-04-25 05:10 | 34.56810 | -119.83332 | 17952 ft | 318 kts | 143° |
| 2026-04-25 05:11 | 34.55148 | -119.81561 | 17949 ft | 318 kts | 143° |
| 2026-04-25 05:11 | 34.53483 | -119.79790 | 17947 ft | 318 kts | 143° |
| 2026-04-25 05:11 | 34.51976 | -119.77813 | 17934 ft | 321 kts | 129° |
| 2026-04-25 05:12 | 34.50222 | -119.72802 | 17938 ft | 328 kts | 103° |
| 2026-04-25 05:12 | 34.49785 | -119.70091 | 17948 ft | 327 kts | 103° |
| 2026-04-25 05:12 | 34.49325 | -119.67391 | 17944 ft | 327 kts | 103° |
| 2026-04-25 05:12 | 34.48863 | -119.64721 | 17944 ft | 328 kts | 103° |
| 2026-04-25 05:13 | 34.48405 | -119.62007 | 17942 ft | 328 kts | 103° |
| 2026-04-25 05:13 | 34.47952 | -119.59295 | 17935 ft | 328 kts | 103° |
| 2026-04-25 05:13 | 34.47492 | -119.56582 | 17934 ft | 328 kts | 103° |
| 2026-04-25 05:13 | 34.47028 | -119.53858 | 17934 ft | 329 kts | 103° |
| 2026-04-25 05:14 | 34.46566 | -119.51138 | 17934 ft | 330 kts | 103° |
| 2026-04-25 05:14 | 34.46103 | -119.48414 | 17928 ft | 330 kts | 103° |
| 2026-04-25 05:14 | 34.45644 | -119.45720 | 17932 ft | 330 kts | 103° |
| 2026-04-25 05:15 | 34.44711 | -119.40264 | 17940 ft | 330 kts | 103° |
| 2026-04-25 05:15 | 34.44244 | -119.37538 | 17943 ft | 330 kts | 103° |
| 2026-04-25 05:15 | 34.43779 | -119.34819 | 17948 ft | 330 kts | 103° |
| 2026-04-25 05:15 | 34.43311 | -119.32100 | 17954 ft | 329 kts | 103° |
| 2026-04-25 05:16 | 34.42842 | -119.29376 | 17956 ft | 330 kts | 103° |
| 2026-04-25 05:16 | 34.42374 | -119.26654 | 17959 ft | 330 kts | 103° |
| 2026-04-25 05:16 | 34.41904 | -119.23931 | 17964 ft | 330 kts | 103° |
| 2026-04-25 05:16 | 34.41440 | -119.21247 | 17966 ft | 330 kts | 103° |
| 2026-04-25 05:17 | 34.40967 | -119.18518 | 17960 ft | 331 kts | 103° |
| 2026-04-25 05:17 | 34.40495 | -119.15784 | 17965 ft | 330 kts | 103° |
| 2026-04-25 05:17 | 34.40024 | -119.13065 | 17967 ft | 330 kts | 103° |
| 2026-04-25 05:17 | 34.39549 | -119.10336 | 17968 ft | 330 kts | 103° |
| 2026-04-25 05:18 | 34.39073 | -119.07608 | 17973 ft | 330 kts | 103° |
| 2026-04-25 05:18 | 34.38606 | -119.04919 | 17977 ft | 331 kts | 103° |
| 2026-04-25 05:18 | 34.38131 | -119.02194 | 17976 ft | 331 kts | 103° |
| 2026-04-25 05:18 | 34.37655 | -118.99468 | 17974 ft | 331 kts | 103° |
| 2026-04-25 05:19 | 34.37179 | -118.96739 | 17974 ft | 331 kts | 103° |
| 2026-04-25 05:19 | 34.36701 | -118.94013 | 17973 ft | 331 kts | 103° |
| 2026-04-25 05:19 | 34.36224 | -118.91287 | 17974 ft | 331 kts | 103° |
| 2026-04-25 05:19 | 34.35746 | -118.88559 | 17974 ft | 331 kts | 104° |
| 2026-04-25 05:20 | 34.35136 | -118.85919 | 17967 ft | 329 kts | 109° |
| 2026-04-25 05:20 | 34.34458 | -118.83275 | 17962 ft | 329 kts | 109° |
| 2026-04-25 05:20 | 34.33788 | -118.80612 | 17962 ft | 330 kts | 109° |
| 2026-04-25 05:20 | 34.33130 | -118.77949 | 17956 ft | 330 kts | 109° |
| 2026-04-25 05:21 | 34.32467 | -118.75288 | 17959 ft | 330 kts | 109° |
| 2026-04-25 05:21 | 34.31798 | -118.72632 | 17959 ft | 330 kts | 109° |
| 2026-04-25 05:21 | 34.31130 | -118.69973 | 17963 ft | 330 kts | 109° |
| 2026-04-25 05:21 | 34.30464 | -118.67312 | 17967 ft | 330 kts | 109° |
| 2026-04-25 05:22 | 34.29797 | -118.64654 | 17967 ft | 330 kts | 109° |
| 2026-04-25 05:22 | 34.29125 | -118.61991 | 17964 ft | 330 kts | 109° |
| 2026-04-25 05:22 | 34.28456 | -118.59330 | 17966 ft | 330 kts | 109° |
| 2026-04-25 05:22 | 34.27794 | -118.56702 | 17974 ft | 330 kts | 109° |
| 2026-04-25 05:23 | 34.27122 | -118.54040 | 17978 ft | 330 kts | 109° |
| 2026-04-25 05:23 | 34.26450 | -118.51376 | 17971 ft | 330 kts | 109° |
| 2026-04-25 05:23 | 34.25776 | -118.48715 | 17973 ft | 330 kts | 109° |
| 2026-04-25 05:23 | 34.25102 | -118.46052 | 17977 ft | 331 kts | 109° |
| 2026-04-25 05:24 | 34.24438 | -118.43428 | 17976 ft | 331 kts | 109° |
| 2026-04-25 05:24 | 34.23763 | -118.40765 | 17985 ft | 331 kts | 109° |
| 2026-04-25 05:24 | 34.23088 | -118.38102 | 17987 ft | 331 kts | 109° |
| 2026-04-25 05:24 | 34.22413 | -118.35445 | 17990 ft | 331 kts | 109° |
| 2026-04-25 05:25 | 34.21736 | -118.32784 | 17989 ft | 331 kts | 109° |
| 2026-04-25 05:25 | 34.21057 | -118.30115 | 17988 ft | 331 kts | 109° |
| 2026-04-25 05:25 | 34.20380 | -118.27456 | 17991 ft | 332 kts | 109° |
| 2026-04-25 05:25 | 34.19704 | -118.24788 | 17982 ft | 331 kts | 109° |
| 2026-04-25 05:26 | 34.19037 | -118.22169 | 17984 ft | 330 kts | 109° |
| 2026-04-25 05:26 | 34.18352 | -118.19516 | 17976 ft | 331 kts | 109° |
| 2026-04-25 05:26 | 34.17671 | -118.16855 | 17975 ft | 331 kts | 109° |
| 2026-04-25 05:26 | 34.16992 | -118.14191 | 17972 ft | 331 kts | 109° |
| 2026-04-25 05:27 | 34.16310 | -118.11529 | 17972 ft | 331 kts | 109° |
| 2026-04-25 05:27 | 34.15625 | -118.08867 | 17967 ft | 331 kts | 109° |
| 2026-04-25 05:27 | 34.14950 | -118.06239 | 17996 ft | 333 kts | 110° |
| 2026-04-25 05:27 | 34.14260 | -118.03554 | 17958 ft | 334 kts | 110° |
| 2026-04-25 05:28 | 34.13570 | -118.00874 | 17956 ft | 334 kts | 110° |
| 2026-04-25 05:28 | 34.12881 | -117.98200 | 17966 ft | 334 kts | 110° |
| 2026-04-25 05:28 | 34.12190 | -117.95524 | 17969 ft | 334 kts | 110° |
| 2026-04-25 05:28 | 34.11731 | -117.93746 | 17967 ft | 334 kts | 110° |
| 2026-04-25 05:29 | 34.11039 | -117.91065 | 17980 ft | 334 kts | 110° |
| 2026-04-25 05:29 | 34.10347 | -117.88392 | 17979 ft | 334 kts | 110° |
| 2026-04-25 05:29 | 34.09655 | -117.85719 | 17981 ft | 334 kts | 110° |
| 2026-04-25 05:29 | 34.08962 | -117.83044 | 17984 ft | 334 kts | 110° |
| 2026-04-25 05:30 | 34.08397 | -117.80358 | 17985 ft | 335 kts | 102° |
| 2026-04-25 05:30 | 34.08112 | -117.77563 | 17987 ft | 335 kts | 96° |
| 2026-04-25 05:30 | 34.07890 | -117.74757 | 17975 ft | 335 kts | 98° |
| 2026-04-25 05:30 | 34.07550 | -117.71975 | 17985 ft | 335 kts | 101° |
| 2026-04-25 05:31 | 34.07165 | -117.69200 | 17984 ft | 335 kts | 101° |
| 2026-04-25 05:31 | 34.06833 | -117.66417 | 17985 ft | 335 kts | 99° |
| 2026-04-25 05:31 | 34.06529 | -117.63689 | 16756 ft | 324 kts | 99° |
| 2026-04-25 05:31 | 34.06207 | -117.61027 | 15085 ft | 324 kts | 100° |
| 2026-04-25 05:32 | 34.05872 | -117.58343 | 13577 ft | 324 kts | 99° |
| 2026-04-25 05:32 | 34.05550 | -117.55664 | 13147 ft | 320 kts | 99° |
| 2026-04-25 05:32 | 34.05229 | -117.52990 | 13144 ft | 323 kts | 99° |
| 2026-04-25 05:32 | 34.04901 | -117.50302 | 13146 ft | 324 kts | 99° |
| 2026-04-25 05:33 | 34.04572 | -117.47599 | 13054 ft | 327 kts | 99° |
| 2026-04-25 05:33 | 34.04241 | -117.44879 | 13010 ft | 328 kts | 99° |
| 2026-04-25 05:33 | 34.03909 | -117.42160 | 13010 ft | 326 kts | 99° |
| 2026-04-25 05:33 | 34.03578 | -117.39459 | 13010 ft | 326 kts | 99° |
| 2026-04-25 05:34 | 34.03250 | -117.36786 | 13006 ft | 326 kts | 99° |
| 2026-04-25 05:34 | 34.02918 | -117.34079 | 13017 ft | 326 kts | 99° |
| 2026-04-25 05:34 | 34.02585 | -117.31378 | 13019 ft | 326 kts | 99° |
| 2026-04-25 05:34 | 34.02250 | -117.28665 | 13019 ft | 325 kts | 99° |
| 2026-04-25 05:35 | 34.01916 | -117.25970 | 13018 ft | 325 kts | 99° |
| 2026-04-25 05:35 | 34.01586 | -117.23303 | 13019 ft | 326 kts | 99° |
| 2026-04-25 05:35 | 34.01252 | -117.20601 | 13021 ft | 326 kts | 99° |
| 2026-04-25 05:35 | 34.00916 | -117.17894 | 13017 ft | 326 kts | 99° |
| 2026-04-25 05:36 | 34.00578 | -117.15184 | 13011 ft | 327 kts | 99° |
| 2026-04-25 05:36 | 34.00240 | -117.12468 | 13005 ft | 327 kts | 99° |
| 2026-04-25 05:36 | 33.99901 | -117.09762 | 13003 ft | 327 kts | 99° |
| 2026-04-25 05:36 | 33.99563 | -117.07054 | 12995 ft | 327 kts | 99° |
| 2026-04-25 05:37 | 33.99229 | -117.04383 | 12986 ft | 327 kts | 99° |
| 2026-04-25 05:37 | 33.98888 | -117.01670 | 12980 ft | 327 kts | 99° |
| 2026-04-25 05:37 | 33.98546 | -116.98958 | 12971 ft | 327 kts | 100° |
| 2026-04-25 05:37 | 33.98206 | -116.96246 | 12961 ft | 327 kts | 100° |
| 2026-04-25 05:38 | 33.97864 | -116.93536 | 12963 ft | 327 kts | 100° |
| 2026-04-25 05:38 | 33.97520 | -116.90824 | 12953 ft | 326 kts | 100° |
| 2026-04-25 05:38 | 33.97178 | -116.88123 | 12950 ft | 326 kts | 100° |
| 2026-04-25 05:38 | 33.96835 | -116.85420 | 12944 ft | 323 kts | 100° |
| 2026-04-25 05:39 | 33.96515 | -116.82876 | 12932 ft | 290 kts | 100° |
| 2026-04-25 05:39 | 33.96223 | -116.80585 | 12865 ft | 265 kts | 100° |
| 2026-04-25 05:39 | 33.95947 | -116.78439 | 12865 ft | 254 kts | 101° |
| 2026-04-25 05:39 | 33.95683 | -116.76376 | 12863 ft | 252 kts | 101° |
| 2026-04-25 05:40 | 33.95421 | -116.74317 | 12724 ft | 241 kts | 100° |
| 2026-04-25 05:40 | 33.95182 | -116.72420 | 12600 ft | 216 kts | 101° |
| 2026-04-25 05:40 | 33.94961 | -116.70707 | 12425 ft | 202 kts | 101° |
| 2026-04-25 05:40 | 33.94743 | -116.69032 | 12059 ft | 202 kts | 101° |
| 2026-04-25 05:41 | 33.94531 | -116.67369 | 11760 ft | 198 kts | 100° |
| 2026-04-25 05:41 | 33.94319 | -116.65725 | 11566 ft | 203 kts | 100° |
| 2026-04-25 05:41 | 33.94100 | -116.64019 | 11860 ft | 209 kts | 100° |
| 2026-04-25 05:41 | 33.93873 | -116.62287 | 11868 ft | 207 kts | 100° |
| 2026-04-25 05:42 | 33.93664 | -116.60618 | 11860 ft | 202 kts | 100° |
| 2026-04-25 05:42 | 33.93459 | -116.58960 | 11855 ft | 199 kts | 100° |
| 2026-04-25 05:42 | 33.93262 | -116.57322 | 11842 ft | 197 kts | 100° |
| 2026-04-25 05:42 | 33.93061 | -116.55691 | 11844 ft | 197 kts | 100° |
| 2026-04-25 05:43 | 33.92861 | -116.54057 | 11851 ft | 197 kts | 100° |
| 2026-04-25 05:43 | 33.92655 | -116.52423 | 11853 ft | 197 kts | 100° |
| 2026-04-25 05:43 | 33.92447 | -116.50797 | 11851 ft | 196 kts | 100° |
| 2026-04-25 05:43 | 33.92241 | -116.49194 | 11850 ft | 196 kts | 100° |
| 2026-04-25 05:44 | 33.92031 | -116.47573 | 11850 ft | 195 kts | 101° |
| 2026-04-25 05:44 | 33.91470 | -116.46139 | 11846 ft | 188 kts | 137° |
| 2026-04-25 05:44 | 33.90568 | -116.45057 | 11547 ft | 184 kts | 141° |
| 2026-04-25 05:44 | 33.89647 | -116.43973 | 11196 ft | 184 kts | 141° |
| 2026-04-25 05:45 | 33.88734 | -116.42908 | 10874 ft | 182 kts | 141° |
| 2026-04-25 05:45 | 33.87825 | -116.41856 | 10549 ft | 180 kts | 141° |
| 2026-04-25 05:45 | 33.86930 | -116.40835 | 10246 ft | 179 kts | 141° |
| 2026-04-25 05:45 | 33.86024 | -116.39823 | 9930 ft | 177 kts | 141° |
| 2026-04-25 05:46 | 33.85119 | -116.38820 | 9589 ft | 177 kts | 141° |
| 2026-04-25 05:46 | 33.84212 | -116.37826 | 9277 ft | 174 kts | 141° |
| 2026-04-25 05:46 | 33.83268 | -116.36798 | 8601 ft | 190 kts | 141° |
| 2026-04-25 05:46 | 33.82277 | -116.35723 | 7946 ft | 198 kts | 141° |
| 2026-04-25 05:47 | 33.81241 | -116.34602 | 7299 ft | 202 kts | 141° |
| 2026-04-25 05:47 | 33.80196 | -116.33476 | 6862 ft | 195 kts | 141° |
| 2026-04-25 05:47 | 33.79258 | -116.32459 | 6841 ft | 169 kts | 141° |
| 2026-04-25 05:47 | 33.78450 | -116.31560 | 6836 ft | 148 kts | 141° |
| 2026-04-25 05:48 | 33.77623 | -116.31121 | 6823 ft | 119 kts | 192° |
| 2026-04-25 05:48 | 33.76960 | -116.31688 | 6464 ft | 129 kts | 249° |
| 2026-04-25 05:48 | 33.76990 | -116.32773 | 6084 ft | 142 kts | 290° |
| 2026-04-25 05:48 | 33.77398 | -116.33901 | 5660 ft | 151 kts | 291° |
| 2026-04-25 05:49 | 33.77808 | -116.35098 | 5226 ft | 157 kts | 291° |
| 2026-04-25 05:49 | 33.78228 | -116.36327 | 4869 ft | 156 kts | 291° |
| 2026-04-25 05:49 | 33.78619 | -116.37457 | 4849 ft | 137 kts | 291° |
| 2026-04-25 05:49 | 33.78958 | -116.38451 | 4844 ft | 120 kts | 285° |
| 2026-04-25 05:50 | 33.78838 | -116.39367 | 4849 ft | 109 kts | 246° |
| 2026-04-25 05:50 | 33.78551 | -116.40158 | 4831 ft | 102 kts | 252° |
| 2026-04-25 05:50 | 33.78265 | -116.41031 | 4511 ft | 121 kts | 251° |
| 2026-04-25 05:50 | 33.77937 | -116.42029 | 4186 ft | 134 kts | 251° |
| 2026-04-25 05:51 | 33.77682 | -116.43121 | 3875 ft | 130 kts | 264° |
| 2026-04-25 05:51 | 33.77663 | -116.44176 | 3444 ft | 128 kts | 275° |
| 2026-04-25 05:51 | 33.77787 | -116.45202 | 3115 ft | 118 kts | 277° |
| 2026-04-25 05:51 | 33.77959 | -116.46149 | 2577 ft | 120 kts | 297° |
| 2026-04-25 05:52 | 33.78540 | -116.46902 | 1994 ft | 128 kts | 324° |
| 2026-04-25 05:52 | 33.79302 | -116.47513 | 1316 ft | 134 kts | 326° |
| 2026-04-25 05:52 | 33.80035 | -116.48154 | 971 ft | 130 kts | 321° |
| 2026-04-25 05:52 | 33.80755 | -116.48790 | 788 ft | 122 kts | 322° |
| 2026-04-25 05:53 | 33.81385 | -116.49347 | 666 ft | 107 kts | 320° |
| 2026-04-25 05:53 | 33.81969 | -116.49871 | 484 ft | 102 kts | 319° |
| 2026-04-25 05:53 | 33.82499 | -116.50345 | 419 ft | 83 kts | 321° |
| 2026-04-25 05:53 | 33.82905 | -116.50709 | 431 ft | 64 kts | 323° |
| 2026-04-25 05:54 | 33.83221 | -116.50994 | 440 ft | 50 kts | 322° |
| 2026-04-25 05:54 | 33.83321 | -116.51148 | 447 ft | 17 kts | 256° |
| 2026-04-25 05:54 | 33.83296 | -116.51186 | 447 ft | 0 kts | 201° |
| 2026-04-25 05:55 | 33.83292 | -116.51187 | 447 ft | 3 kts | 194° |
| 2026-04-25 05:55 | 33.83234 | -116.51199 | 440 ft | 15 kts | 179° |
| 2026-04-25 05:55 | 33.83125 | -116.51121 | 437 ft | 19 kts | 143° |
| 2026-04-25 05:55 | 33.83024 | -116.51031 | 432 ft | 17 kts | 144° |
| 2026-04-25 05:56 | 33.82940 | -116.50958 | 434 ft | 13 kts | 144° |
| 2026-04-25 05:56 | 33.82872 | -116.50923 | 438 ft | 11 kts | 189° |
| 2026-04-25 05:56 | 33.82790 | -116.50894 | 437 ft | 11 kts | 168° |
| 2026-04-25 05:56 | 33.82729 | -116.50958 | 432 ft | 13 kts | 202° |
| 2026-04-25 05:57 | 33.82724 | -116.50961 | 435 ft | 0 kts | 202° |